Time;durP1;ratioP1;P1;durP2;ratioP2;P2;SDS_P1;SDS_P2;PMS_P1;PMS_P2;Temp;Humidity;BMP_temperature;BMP_pressure;BME280_temperature;BME280_humidity;BME280_pressure;Samples;Min_cycle;Max_cycle;Signal;HPM_P1;HPM_P2
2022/08/03 00:01:26;;;;;;;4.72;1.20;;;;;;;;;;4945339;28;20086;-69
2022/08/03 00:03:51;;;;;;;3.00;1.50;;;;;;;;;;4962050;28;20046;-69
2022/08/03 00:06:17;;;;;;;2.85;1.58;;;;;;;;;;4948536;28;20019;-72
2022/08/03 00:08:42;;;;;;;4.90;1.40;;;;;;;;;;4945761;28;20767;-71
2022/08/03 00:11:08;;;;;;;1.55;1.40;;;;;;;;;;4946848;28;20052;-72
2022/08/03 00:13:34;;;;;;;3.38;1.25;;;;;;;;;;4936895;28;20047;-72
2022/08/03 00:15:59;;;;;;;1.77;1.35;;;;;;;;;;4928427;28;20138;-79
2022/08/03 00:18:24;;;;;;;1.80;1.48;;;;;;;;;;4929133;28;20059;-72
2022/08/03 00:20:50;;;;;;;1.88;1.67;;;;;;;;;;4958619;28;20031;-71
2022/08/03 00:23:15;;;;;;;1.40;1.30;;;;;;;;;;4973748;28;20130;-71
2022/08/03 00:25:41;;;;;;;1.52;1.40;;;;;;;;;;4931676;28;20036;-71
2022/08/03 00:28:07;;;;;;;2.03;1.40;;;;;;;;;;4926698;28;20044;-71
2022/08/03 00:30:33;;;;;;;3.28;1.42;;;;;;;;;;4931821;28;20041;-72
2022/08/03 00:32:59;;;;;;;2.17;1.38;;;;;;;;;;4947490;28;20443;-71
2022/08/03 00:35:24;;;;;;;3.13;1.23;;;;;;;;;;4948049;28;20051;-72
2022/08/03 00:37:50;;;;;;;1.98;1.23;;;;;;;;;;4934206;28;20527;-73
2022/08/03 00:40:18;;;;;;;2.95;1.40;;;;;;;;;;4930975;28;20039;-71
2022/08/03 00:42:56;;;;;;;2.50;1.30;;;;;;;;;;4932479;28;20437;-70
2022/08/03 00:45:27;;;;;;;1.95;1.17;;;;;;;;;;4945158;28;20035;-71
2022/08/03 00:47:54;;;;;;;1.98;1.45;;;;;;;;;;4950571;28;20031;-70
2022/08/03 00:50:22;;;;;;;3.35;1.35;;;;;;;;;;4947204;28;20039;-70
2022/08/03 00:52:50;;;;;;;3.90;1.60;;;;;;;;;;4932860;28;20043;-71
2022/08/03 00:55:15;;;;;;;2.60;1.33;;;;;;;;;;4927461;28;20150;-69
2022/08/03 00:57:42;;;;;;;2.30;1.50;;;;;;;;;;4928002;28;20071;-70
2022/08/03 01:00:10;;;;;;;3.40;1.52;;;;;;;;;;4926844;28;20094;-74
2022/08/03 01:02:36;;;;;;;2.75;1.65;;;;;;;;;;4927283;29;20070;-70
2022/08/03 01:05:03;;;;;;;4.75;1.52;;;;;;;;;;4926204;28;20495;-71
2022/08/03 01:08:07;;;;;;;1.95;1.30;;;;;;;;;;4937862;28;20074;-70
2022/08/03 01:10:51;;;;;;;2.17;1.50;;;;;;;;;;4945636;28;20126;-71
2022/08/03 01:13:46;;;;;;;3.05;1.30;;;;;;;;;;4945033;28;20415;-70
2022/08/03 01:16:22;;;;;;;1.40;1.30;;;;;;;;;;4946995;28;20039;-72
2022/08/03 01:19:06;;;;;;;1.60;1.50;;;;;;;;;;4948473;28;20507;-72
2022/08/03 01:22:08;;;;;;;3.00;1.40;;;;;;;;;;4946644;28;20470;-71
2022/08/03 01:24:52;;;;;;;1.92;1.60;;;;;;;;;;4947669;28;20217;-71
2022/08/03 01:27:22;;;;;;;2.30;1.30;;;;;;;;;;4947150;28;20022;-74
2022/08/03 01:30:14;;;;;;;1.70;1.38;;;;;;;;;;4946813;28;21483;-73
2022/08/03 01:32:45;;;;;;;4.47;1.63;;;;;;;;;;4925529;29;20496;-73
2022/08/03 01:35:15;;;;;;;2.10;1.42;;;;;;;;;;4943804;28;20416;-70
2022/08/03 01:37:55;;;;;;;2.50;1.38;;;;;;;;;;4945186;28;20046;-74
2022/08/03 01:40:24;;;;;;;3.13;1.67;;;;;;;;;;4945296;28;20114;-73
2022/08/03 01:42:51;;;;;;;2.90;1.63;;;;;;;;;;4945159;28;20042;-70
2022/08/03 01:45:17;;;;;;;2.40;1.38;;;;;;;;;;4957724;28;20074;-70
2022/08/03 01:47:48;;;;;;;3.72;1.60;;;;;;;;;;4945748;28;20473;-71
2022/08/03 01:50:15;;;;;;;1.85;1.50;;;;;;;;;;4944502;28;20050;-70
2022/08/03 01:52:43;;;;;;;1.85;1.42;;;;;;;;;;4944379;28;20062;-69
2022/08/03 01:55:10;;;;;;;1.60;1.50;;;;;;;;;;4945978;28;20078;-70
2022/08/03 01:57:38;;;;;;;2.03;1.50;;;;;;;;;;4947192;28;20122;-70
2022/08/03 02:00:05;;;;;;;1.50;1.40;;;;;;;;;;4950094;28;20035;-71
2022/08/03 02:02:32;;;;;;;2.13;1.35;;;;;;;;;;4952707;28;20531;-73
2022/08/03 02:04:59;;;;;;;6.13;1.50;;;;;;;;;;4952959;28;20035;-73
2022/08/03 02:07:26;;;;;;;2.08;1.30;;;;;;;;;;4942577;28;20174;-76
2022/08/03 02:09:54;;;;;;;1.90;1.52;;;;;;;;;;4938281;28;20102;-71
2022/08/03 02:12:21;;;;;;;2.00;1.50;;;;;;;;;;4950113;28;20031;-70
2022/08/03 02:14:48;;;;;;;3.70;1.50;;;;;;;;;;4930570;29;20024;-72
2022/08/03 02:17:15;;;;;;;2.70;1.30;;;;;;;;;;4948896;28;20046;-71
2022/08/03 02:19:42;;;;;;;1.92;1.40;;;;;;;;;;4950731;28;20679;-71
2022/08/03 02:22:10;;;;;;;1.45;1.30;;;;;;;;;;4951609;28;20530;-72
2022/08/03 02:24:36;;;;;;;2.95;1.50;;;;;;;;;;4951178;28;20511;-70
2022/08/03 02:27:06;;;;;;;2.00;1.25;;;;;;;;;;4951968;28;20046;-72
2022/08/03 02:29:35;;;;;;;3.58;1.50;;;;;;;;;;4948677;28;20118;-72
2022/08/03 02:32:03;;;;;;;1.67;1.58;;;;;;;;;;4949189;28;20106;-71
2022/08/03 02:34:32;;;;;;;1.63;1.38;;;;;;;;;;4952815;28;20047;-70
2022/08/03 02:36:59;;;;;;;2.20;1.40;;;;;;;;;;4957648;28;20050;-70
2022/08/03 02:39:30;;;;;;;1.45;1.30;;;;;;;;;;4953070;28;20102;-71
2022/08/03 02:42:01;;;;;;;3.55;1.60;;;;;;;;;;4956068;28;20043;-70
2022/08/03 02:44:27;;;;;;;2.85;1.45;;;;;;;;;;4954454;28;20054;-71
2022/08/03 02:46:57;;;;;;;4.13;1.83;;;;;;;;;;4953314;28;20591;-76
2022/08/03 02:49:25;;;;;;;4.25;1.70;;;;;;;;;;4954530;28;20137;-71
2022/08/03 02:51:53;;;;;;;2.83;1.73;;;;;;;;;;4947477;28;20050;-73
2022/08/03 02:54:20;;;;;;;5.00;1.50;;;;;;;;;;4933221;28;20032;-71
2022/08/03 02:56:47;;;;;;;2.05;1.80;;;;;;;;;;4967313;28;20035;-71
2022/08/03 02:59:13;;;;;;;1.73;1.40;;;;;;;;;;4949177;28;20043;-73
2022/08/03 03:01:39;;;;;;;2.58;1.65;;;;;;;;;;4949440;28;20043;-71
2022/08/03 03:04:06;;;;;;;3.15;1.98;;;;;;;;;;4952620;28;20041;-71
2022/08/03 03:06:33;;;;;;;2.22;1.65;;;;;;;;;;4953294;28;20031;-70
2022/08/03 03:08:59;;;;;;;1.50;1.40;;;;;;;;;;4952939;28;20027;-70
2022/08/03 03:11:26;;;;;;;2.40;1.60;;;;;;;;;;4946250;28;20035;-70
2022/08/03 03:13:52;;;;;;;1.60;1.50;;;;;;;;;;4946274;28;20044;-70
2022/08/03 03:16:19;;;;;;;2.05;1.33;;;;;;;;;;4947405;28;20078;-69
2022/08/03 03:18:46;;;;;;;2.25;1.50;;;;;;;;;;4942603;28;20051;-71
2022/08/03 03:21:15;;;;;;;3.22;1.58;;;;;;;;;;4927229;28;20027;-71
2022/08/03 03:23:40;;;;;;;2.75;1.50;;;;;;;;;;4946621;28;20219;-71
2022/08/03 03:26:07;;;;;;;2.30;1.48;;;;;;;;;;4949995;28;20054;-70
2022/08/03 03:28:33;;;;;;;3.83;1.70;;;;;;;;;;4950302;28;20035;-76
2022/08/03 03:30:59;;;;;;;2.60;1.70;;;;;;;;;;4947211;28;20449;-71
2022/08/03 03:33:25;;;;;;;1.95;1.30;;;;;;;;;;4949311;28;20487;-71
2022/08/03 03:35:51;;;;;;;2.28;1.50;;;;;;;;;;4950914;28;20031;-71
2022/08/03 03:38:18;;;;;;;2.28;1.65;;;;;;;;;;4949063;28;20035;-71
2022/08/03 03:40:44;;;;;;;3.30;1.77;;;;;;;;;;4947886;28;20036;-72
2022/08/03 03:43:10;;;;;;;4.38;1.60;;;;;;;;;;4949198;28;20040;-70
2022/08/03 03:45:36;;;;;;;3.97;1.60;;;;;;;;;;4949638;28;20063;-73
2022/08/03 03:48:06;;;;;;;2.80;1.60;;;;;;;;;;4946883;28;20122;-73
2022/08/03 03:50:34;;;;;;;4.50;1.60;;;;;;;;;;4949037;28;20055;-71
2022/08/03 03:53:03;;;;;;;2.40;1.60;;;;;;;;;;4943737;28;20628;-71
2022/08/03 03:55:29;;;;;;;2.67;1.67;;;;;;;;;;4948733;28;20043;-70
2022/08/03 03:57:55;;;;;;;5.13;1.67;;;;;;;;;;4947643;28;20042;-71
2022/08/03 04:00:21;;;;;;;5.15;1.80;;;;;;;;;;4948513;28;20479;-70
2022/08/03 04:02:47;;;;;;;5.18;1.98;;;;;;;;;;4947230;28;20038;-71
2022/08/03 04:11:00;;;;;;;2.58;1.80;;;;;;;;;;4948002;28;20074;-70
2022/08/03 04:13:34;;;;;;;2.80;1.80;;;;;;;;;;4946052;28;20043;-71
2022/08/03 04:16:01;;;;;;;5.07;1.90;;;;;;;;;;4950443;28;20051;-71
2022/08/03 04:18:30;;;;;;;2.88;1.60;;;;;;;;;;4946045;28;20114;-73
2022/08/03 04:20:59;;;;;;;2.05;1.60;;;;;;;;;;4945719;28;20026;-73
2022/08/03 04:23:28;;;;;;;2.85;1.70;;;;;;;;;;4947067;28;20035;-71
2022/08/03 04:25:55;;;;;;;3.67;1.80;;;;;;;;;;4929673;28;20480;-71
2022/08/03 04:28:22;;;;;;;3.45;1.70;;;;;;;;;;4938552;28;20043;-74
2022/08/03 04:30:51;;;;;;;2.95;1.80;;;;;;;;;;4947724;28;21122;-70
2022/08/03 04:33:18;;;;;;;5.35;1.83;;;;;;;;;;4943157;28;20779;-69
2022/08/03 04:35:45;;;;;;;3.83;1.80;;;;;;;;;;4926449;29;20044;-71
2022/08/03 04:38:14;;;;;;;2.30;1.90;;;;;;;;;;4947608;28;20130;-71
2022/08/03 04:40:42;;;;;;;3.20;1.92;;;;;;;;;;4951607;28;20388;-73
2022/08/03 04:43:10;;;;;;;2.15;1.60;;;;;;;;;;4950192;28;20039;-73
2022/08/03 04:45:36;;;;;;;2.55;1.85;;;;;;;;;;4949766;28;20046;-71
2022/08/03 04:48:02;;;;;;;2.58;2.00;;;;;;;;;;4948681;28;20031;-75
2022/08/03 04:50:28;;;;;;;5.07;2.20;;;;;;;;;;4949497;28;20126;-71
2022/08/03 04:52:54;;;;;;;4.38;2.17;;;;;;;;;;4948200;28;20129;-71
2022/08/03 04:55:28;;;;;;;7.55;2.05;;;;;;;;;;4952221;28;20403;-71
2022/08/03 04:57:53;;;;;;;2.55;1.80;;;;;;;;;;4949668;28;20057;-72
2022/08/03 05:00:19;;;;;;;1.98;1.70;;;;;;;;;;4962603;28;20034;-71
2022/08/03 05:02:45;;;;;;;8.15;1.92;;;;;;;;;;4949387;28;20025;-73
2022/08/03 05:05:10;;;;;;;3.20;1.83;;;;;;;;;;4947833;28;20038;-71
2022/08/03 05:07:36;;;;;;;1.98;1.80;;;;;;;;;;4950986;28;20074;-70
2022/08/03 05:10:04;;;;;;;5.15;2.00;;;;;;;;;;4949887;28;20597;-73
2022/08/03 05:12:30;;;;;;;5.15;2.17;;;;;;;;;;4947784;28;20054;-72
2022/08/03 05:14:55;;;;;;;3.67;2.10;;;;;;;;;;4947909;28;20035;-70
2022/08/03 05:17:20;;;;;;;4.75;2.00;;;;;;;;;;4947708;28;20047;-71
2022/08/03 05:19:46;;;;;;;5.20;2.22;;;;;;;;;;4945186;28;20059;-71
2022/08/03 05:22:11;;;;;;;3.78;2.10;;;;;;;;;;4962973;28;20507;-72
2022/08/03 05:24:37;;;;;;;6.05;2.33;;;;;;;;;;4951470;28;20551;-70
2022/08/03 05:27:02;;;;;;;7.03;2.50;;;;;;;;;;4947965;28;20058;-71
2022/08/03 05:29:28;;;;;;;7.60;3.10;;;;;;;;;;4947863;28;20371;-77
2022/08/03 05:31:53;;;;;;;5.07;2.70;;;;;;;;;;4948443;28;20094;-71
2022/08/03 05:34:19;;;;;;;5.15;2.83;;;;;;;;;;4958145;28;20545;-72
2022/08/03 05:36:44;;;;;;;7.43;2.30;;;;;;;;;;4956511;28;20681;-74
2022/08/03 05:39:10;;;;;;;7.78;2.20;;;;;;;;;;4959875;28;20438;-71
2022/08/03 05:41:36;;;;;;;5.95;2.35;;;;;;;;;;4928294;29;20041;-70
2022/08/03 05:44:02;;;;;;;7.60;3.00;;;;;;;;;;4940868;28;20039;-70
2022/08/03 05:46:27;;;;;;;16.50;3.28;;;;;;;;;;4947514;28;20086;-69
2022/08/03 05:48:53;;;;;;;6.10;2.30;;;;;;;;;;4941214;28;20036;-70
2022/08/03 05:51:18;;;;;;;4.65;2.28;;;;;;;;;;4932992;28;20436;-70
2022/08/03 05:53:44;;;;;;;8.75;2.72;;;;;;;;;;4945945;28;20399;-71
2022/08/03 05:56:09;;;;;;;4.78;2.13;;;;;;;;;;4944318;28;20075;-71
2022/08/03 05:58:35;;;;;;;4.30;2.25;;;;;;;;;;4946362;28;20036;-73
2022/08/03 06:01:00;;;;;;;5.85;2.17;;;;;;;;;;4937787;28;20415;-70
2022/08/03 06:03:26;;;;;;;3.95;1.90;;;;;;;;;;4931099;28;20035;-70
2022/08/03 06:05:55;;;;;;;5.90;2.20;;;;;;;;;;4948279;28;20035;-69
2022/08/03 06:08:21;;;;;;;3.17;2.05;;;;;;;;;;4950490;28;20067;-76
2022/08/03 06:10:47;;;;;;;13.73;3.00;;;;;;;;;;4943535;28;20078;-71
2022/08/03 06:13:13;;;;;;;11.38;2.75;;;;;;;;;;4947956;28;20039;-70
2022/08/03 06:15:38;;;;;;;59.20;5.28;;;;;;;;;;4942400;28;20055;-73
2022/08/03 06:18:04;;;;;;;17.33;3.95;;;;;;;;;;4928465;29;20067;-70
2022/08/03 06:20:29;;;;;;;7.47;3.00;;;;;;;;;;4926887;29;20396;-71
2022/08/03 06:22:55;;;;;;;9.32;3.22;;;;;;;;;;4945818;28;20491;-70
2022/08/03 06:25:20;;;;;;;6.80;2.10;;;;;;;;;;4947265;28;20036;-72
2022/08/03 06:27:45;;;;;;;4.15;2.13;;;;;;;;;;4942089;28;20052;-72
2022/08/03 06:30:12;;;;;;;3.58;2.00;;;;;;;;;;4927173;28;20039;-71
2022/08/03 06:32:39;;;;;;;5.88;2.58;;;;;;;;;;4927270;29;20396;-71
2022/08/03 06:35:05;;;;;;;3.65;1.80;;;;;;;;;;4939288;28;20531;-71
2022/08/03 06:37:31;;;;;;;6.57;2.42;;;;;;;;;;4935482;28;20059;-72
2022/08/03 06:39:56;;;;;;;4.95;2.25;;;;;;;;;;4924576;28;20048;-71
2022/08/03 06:42:21;;;;;;;4.18;1.92;;;;;;;;;;4926046;28;20095;-73
2022/08/03 06:44:47;;;;;;;6.53;2.10;;;;;;;;;;4926307;29;20039;-73
2022/08/03 06:47:12;;;;;;;3.67;1.90;;;;;;;;;;4928470;28;20035;-72
2022/08/03 06:49:39;;;;;;;2.67;2.00;;;;;;;;;;4939524;28;20500;-73
2022/08/03 06:52:05;;;;;;;3.60;2.05;;;;;;;;;;4940997;28;20043;-74
2022/08/03 06:54:30;;;;;;;3.35;1.60;;;;;;;;;;4926096;29;20055;-72
2022/08/03 06:56:56;;;;;;;6.45;1.88;;;;;;;;;;4931352;29;20154;-70
2022/08/03 06:59:21;;;;;;;4.45;1.50;;;;;;;;;;4931244;28;20135;-72
2022/08/03 07:01:46;;;;;;;2.00;1.50;;;;;;;;;;4960290;28;20480;-70
2022/08/03 07:04:12;;;;;;;3.50;1.65;;;;;;;;;;4944131;28;20059;-71
2022/08/03 07:06:37;;;;;;;3.33;1.70;;;;;;;;;;4933010;28;20047;-71
2022/08/03 07:09:03;;;;;;;2.75;1.63;;;;;;;;;;4928713;29;20585;-73
2022/08/03 07:11:29;;;;;;;4.25;1.98;;;;;;;;;;4949394;28;20051;-69
2022/08/03 07:13:55;;;;;;;3.85;1.67;;;;;;;;;;4950383;28;20047;-72
2022/08/03 07:16:20;;;;;;;5.15;1.90;;;;;;;;;;4948381;28;20034;-72
2022/08/03 07:18:46;;;;;;;4.18;2.50;;;;;;;;;;4948338;28;20605;-71
2022/08/03 07:21:11;;;;;;;5.53;2.00;;;;;;;;;;4948110;28;20031;-69
2022/08/03 07:23:37;;;;;;;4.40;1.98;;;;;;;;;;4948083;28;20034;-70
2022/08/03 07:26:03;;;;;;;4.85;1.70;;;;;;;;;;4963995;28;20040;-71
2022/08/03 07:28:28;;;;;;;2.88;1.92;;;;;;;;;;4948409;28;20055;-72
2022/08/03 07:30:54;;;;;;;4.85;1.65;;;;;;;;;;4949519;28;20056;-71
2022/08/03 07:33:19;;;;;;;5.15;1.77;;;;;;;;;;4961866;28;20393;-73
2022/08/03 07:35:45;;;;;;;3.13;1.60;;;;;;;;;;4951067;28;20035;-72
2022/08/03 07:38:10;;;;;;;3.63;1.55;;;;;;;;;;4946978;28;20035;-72
2022/08/03 07:40:36;;;;;;;2.67;1.50;;;;;;;;;;4947728;28;20126;-71
2022/08/03 07:43:02;;;;;;;5.95;1.60;;;;;;;;;;4947640;28;20039;-71
2022/08/03 07:45:29;;;;;;;3.83;1.70;;;;;;;;;;4948899;28;20051;-70
2022/08/03 07:47:54;;;;;;;2.55;1.70;;;;;;;;;;4948599;28;20034;-73
2022/08/03 07:50:20;;;;;;;5.00;1.75;;;;;;;;;;4943307;28;20511;-73
2022/08/03 07:52:48;;;;;;;4.93;1.63;;;;;;;;;;4948013;28;20091;-70
2022/08/03 07:55:15;;;;;;;7.40;2.00;;;;;;;;;;4937266;28;20074;-70
2022/08/03 07:57:40;;;;;;;5.88;2.25;;;;;;;;;;4926852;28;20039;-71
2022/08/03 08:00:13;;;;;;;6.78;1.88;;;;;;;;;;4925531;28;20032;-70
2022/08/03 08:02:39;;;;;;;4.95;1.75;;;;;;;;;;4927743;29;20027;-70
2022/08/03 08:05:05;;;;;;;5.82;1.83;;;;;;;;;;4927754;28;20043;-72
2022/08/03 08:07:30;;;;;;;5.22;1.70;;;;;;;;;;4941873;28;20035;-71
2022/08/03 08:09:56;;;;;;;7.90;1.88;;;;;;;;;;4948606;28;20035;-72
2022/08/03 08:12:21;;;;;;;8.60;1.67;;;;;;;;;;4949643;28;20039;-72
2022/08/03 08:14:47;;;;;;;2.53;1.88;;;;;;;;;;4930258;29;20031;-71
2022/08/03 08:17:13;;;;;;;3.83;1.73;;;;;;;;;;4946060;28;20047;-74
2022/08/03 08:19:39;;;;;;;5.93;1.80;;;;;;;;;;4936767;28;20131;-71
2022/08/03 08:22:05;;;;;;;4.72;1.58;;;;;;;;;;4931023;28;20040;-69
2022/08/03 08:24:31;;;;;;;2.58;1.52;;;;;;;;;;4925823;28;20040;-69
2022/08/03 08:26:56;;;;;;;8.45;1.73;;;;;;;;;;4929257;29;20024;-69
2022/08/03 08:29:22;;;;;;;2.15;1.48;;;;;;;;;;4929168;28;20047;-70
2022/08/03 08:31:49;;;;;;;4.70;2.17;;;;;;;;;;4942208;28;20035;-70
2022/08/03 08:34:14;;;;;;;4.05;1.83;;;;;;;;;;4947266;28;20039;-71
2022/08/03 08:36:40;;;;;;;2.50;1.33;;;;;;;;;;4947229;28;20066;-69
2022/08/03 08:39:06;;;;;;;2.95;1.50;;;;;;;;;;4976185;28;20522;-70
2022/08/03 08:41:33;;;;;;;1.77;1.48;;;;;;;;;;4945681;28;20058;-71
2022/08/03 08:43:59;;;;;;;3.33;1.52;;;;;;;;;;4944546;28;20043;-68
2022/08/03 08:46:25;;;;;;;2.55;1.50;;;;;;;;;;4948120;28;20043;-67
2022/08/03 08:48:52;;;;;;;1.80;1.70;;;;;;;;;;4949691;28;20463;-71
2022/08/03 08:51:20;;;;;;;3.03;1.38;;;;;;;;;;4945047;28;20075;-70
2022/08/03 08:53:50;;;;;;;6.25;1.90;;;;;;;;;;4947908;28;20322;-72
2022/08/03 08:56:17;;;;;;;3.63;1.38;;;;;;;;;;4947216;28;20552;-71
2022/08/03 08:58:50;;;;;;;2.17;1.52;;;;;;;;;;4948780;28;20043;-72
2022/08/03 09:01:19;;;;;;;4.20;1.90;;;;;;;;;;4948136;28;20050;-73
2022/08/03 09:03:45;;;;;;;3.72;1.75;;;;;;;;;;4946308;28;20040;-71
2022/08/03 09:06:10;;;;;;;10.10;2.03;;;;;;;;;;4945793;28;20027;-71
2022/08/03 09:08:36;;;;;;;4.90;1.70;;;;;;;;;;4947687;28;20031;-71
2022/08/03 09:11:01;;;;;;;4.75;1.70;;;;;;;;;;4944390;28;20122;-70
2022/08/03 09:13:28;;;;;;;3.05;1.85;;;;;;;;;;4948071;28;20039;-71
2022/08/03 09:16:12;;;;;;;3.35;1.67;;;;;;;;;;4948632;28;20039;-72
2022/08/03 09:18:39;;;;;;;3.13;1.83;;;;;;;;;;4946032;28;20035;-72
2022/08/03 09:21:25;;;;;;;3.05;1.60;;;;;;;;;;4947283;28;20046;-70
2022/08/03 09:23:56;;;;;;;2.42;1.50;;;;;;;;;;4950561;28;20051;-70
2022/08/03 09:26:25;;;;;;;3.53;1.70;;;;;;;;;;4930384;28;20050;-71
2022/08/03 09:28:59;;;;;;;1.80;1.45;;;;;;;;;;4942066;28;20904;-70
2022/08/03 09:31:59;;;;;;;3.83;1.55;;;;;;;;;;4937632;28;20042;-69
2022/08/03 09:34:27;;;;;;;2.80;1.48;;;;;;;;;;4937976;28;20416;-72
2022/08/03 09:36:53;;;;;;;3.30;1.50;;;;;;;;;;4947160;28;20705;-71
2022/08/03 09:39:20;;;;;;;7.13;1.80;;;;;;;;;;4944270;28;20160;-71
2022/08/03 09:42:02;;;;;;;3.60;1.70;;;;;;;;;;4923543;29;20040;-73
2022/08/03 09:44:35;;;;;;;3.87;1.53;;;;;;;;;;4948891;28;20058;-70
2022/08/03 09:47:01;;;;;;;2.38;1.40;;;;;;;;;;4929786;28;20369;-70
2022/08/03 09:49:26;;;;;;;2.63;1.58;;;;;;;;;;4957096;28;20035;-69
2022/08/03 09:51:53;;;;;;;4.20;1.52;;;;;;;;;;4925368;29;20108;-70
2022/08/03 09:54:26;;;;;;;2.13;1.35;;;;;;;;;;4924968;28;20032;-71
2022/08/03 09:56:52;;;;;;;5.07;1.80;;;;;;;;;;4928688;29;20046;-70
2022/08/03 09:59:27;;;;;;;2.63;1.55;;;;;;;;;;4942863;28;20039;-71
2022/08/03 10:01:53;;;;;;;4.00;1.60;;;;;;;;;;4934346;28;20039;-71
2022/08/03 10:04:18;;;;;;;3.47;1.70;;;;;;;;;;4936528;28;20668;-70
2022/08/03 10:07:00;;;;;;;7.70;1.77;;;;;;;;;;4949576;28;20114;-71
2022/08/03 10:09:26;;;;;;;1.85;1.60;;;;;;;;;;4950810;28;20047;-71
2022/08/03 10:11:51;;;;;;;2.08;1.42;;;;;;;;;;4948319;28;20414;-72
2022/08/03 10:14:21;;;;;;;2.55;1.40;;;;;;;;;;4944409;28;20093;-69
2022/08/03 10:16:47;;;;;;;4.40;1.58;;;;;;;;;;4945680;28;20150;-72
2022/08/03 10:19:14;;;;;;;4.65;1.50;;;;;;;;;;4945814;28;20434;-69
2022/08/03 10:21:45;;;;;;;3.47;1.50;;;;;;;;;;4950363;28;20624;-70
2022/08/03 10:24:13;;;;;;;5.22;1.60;;;;;;;;;;4951413;28;20051;-72
2022/08/03 10:26:40;;;;;;;4.32;1.60;;;;;;;;;;4952438;28;20027;-69
2022/08/03 10:29:17;;;;;;;1.75;1.42;;;;;;;;;;4949680;28;20051;-71
2022/08/03 10:31:45;;;;;;;5.78;1.50;;;;;;;;;;4952051;28;20039;-69
2022/08/03 10:34:18;;;;;;;6.88;1.40;;;;;;;;;;4948109;28;20086;-71
2022/08/03 10:36:45;;;;;;;2.58;1.20;;;;;;;;;;4950667;28;20042;-70
2022/08/03 10:39:12;;;;;;;5.72;1.63;;;;;;;;;;4950886;28;20296;-70
2022/08/03 10:41:41;;;;;;;4.95;1.40;;;;;;;;;;4952856;28;20696;-69
2022/08/03 10:44:14;;;;;;;2.17;1.33;;;;;;;;;;4949437;28;20640;-71
2022/08/03 10:46:41;;;;;;;4.68;1.45;;;;;;;;;;4951759;28;20055;-69
2022/08/03 10:49:10;;;;;;;3.42;1.55;;;;;;;;;;4951507;28;20138;-70
2022/08/03 10:51:37;;;;;;;1.80;1.55;;;;;;;;;;4966188;28;20039;-69
2022/08/03 10:54:02;;;;;;;2.13;1.38;;;;;;;;;;4954507;28;20361;-72
2022/08/03 10:59:15;;;;;;;3.25;1.48;;;;;;;;;;4950500;28;20263;-71
2022/08/03 11:01:55;;;;;;;2.17;1.50;;;;;;;;;;4950249;28;20119;-66
2022/08/03 11:04:23;;;;;;;2.22;1.55;;;;;;;;;;4946938;28;20024;-69
2022/08/03 11:07:17;;;;;;;3.70;1.52;;;;;;;;;;4949765;28;20122;-67
2022/08/03 11:09:47;;;;;;;7.07;1.73;;;;;;;;;;4954267;28;20404;-67
2022/08/03 11:12:25;;;;;;;3.08;1.58;;;;;;;;;;4953303;28;20031;-68
2022/08/03 11:14:52;;;;;;;2.65;1.70;;;;;;;;;;4950317;28;20471;-67
2022/08/03 11:17:18;;;;;;;2.53;1.40;;;;;;;;;;4949862;28;20039;-69
2022/08/03 11:19:46;;;;;;;7.88;1.63;;;;;;;;;;4949386;28;20038;-67
2022/08/03 11:22:12;;;;;;;4.78;1.63;;;;;;;;;;4951232;28;20047;-68
2022/08/03 11:24:50;;;;;;;2.42;1.38;;;;;;;;;;4950099;28;20039;-68
2022/08/03 11:27:22;;;;;;;4.00;1.60;;;;;;;;;;4948598;28;20030;-70
2022/08/03 11:30:07;;;;;;;2.53;1.75;;;;;;;;;;4953057;28;20110;-69
2022/08/03 11:32:39;;;;;;;2.33;1.40;;;;;;;;;;4950175;28;20464;-67
2022/08/03 11:35:14;;;;;;;7.53;1.30;;;;;;;;;;4950240;28;20053;-67
2022/08/03 11:37:55;;;;;;;2.35;1.42;;;;;;;;;;4948209;28;20103;-69
2022/08/03 11:40:48;;;;;;;1.77;1.40;;;;;;;;;;4950959;28;20051;-67
2022/08/03 11:43:29;;;;;;;2.83;1.35;;;;;;;;;;4952045;28;20074;-67
2022/08/03 11:46:05;;;;;;;3.35;1.42;;;;;;;;;;4950207;28;20043;-67
2022/08/03 11:48:37;;;;;;;2.85;1.40;;;;;;;;;;4951394;28;20039;-69
2022/08/03 11:51:18;;;;;;;1.98;1.50;;;;;;;;;;4952355;28;20027;-67
2022/08/03 11:53:46;;;;;;;1.35;1.23;;;;;;;;;;4948528;28;20043;-68
2022/08/03 11:56:12;;;;;;;6.15;1.67;;;;;;;;;;4952325;28;20452;-67
2022/08/03 11:58:46;;;;;;;4.38;1.50;;;;;;;;;;4951410;28;20061;-67
2022/08/03 12:01:11;;;;;;;4.53;1.30;;;;;;;;;;4947419;28;20061;-67
2022/08/03 12:03:37;;;;;;;2.92;1.50;;;;;;;;;;4951643;28;20188;-66
2022/08/03 12:06:08;;;;;;;1.63;1.45;;;;;;;;;;4950263;28;20059;-67
2022/08/03 12:08:34;;;;;;;3.92;1.40;;;;;;;;;;4951665;28;20363;-68
2022/08/03 12:11:04;;;;;;;6.13;1.67;;;;;;;;;;4951207;28;20047;-70
2022/08/03 12:13:39;;;;;;;2.03;1.60;;;;;;;;;;4951011;28;20514;-77
2022/08/03 12:16:05;;;;;;;3.67;1.48;;;;;;;;;;4937795;28;20366;-74
2022/08/03 12:18:31;;;;;;;2.53;1.60;;;;;;;;;;4933741;28;20046;-72
2022/08/03 12:21:08;;;;;;;1.35;1.23;;;;;;;;;;4948808;28;20023;-70
2022/08/03 12:23:34;;;;;;;1.17;1.10;;;;;;;;;;4926006;29;20104;-69
2022/08/03 12:26:05;;;;;;;2.15;1.30;;;;;;;;;;4944145;28;20043;-69
2022/08/03 12:28:31;;;;;;;4.45;1.40;;;;;;;;;;4948408;28;20047;-69
2022/08/03 12:31:01;;;;;;;1.45;1.35;;;;;;;;;;4946503;28;20478;-70
2022/08/03 12:33:27;;;;;;;2.83;1.40;;;;;;;;;;4945755;28;20083;-69
2022/08/03 12:36:06;;;;;;;1.77;1.48;;;;;;;;;;4946196;28;20458;-73
2022/08/03 12:38:34;;;;;;;1.60;1.10;;;;;;;;;;4950308;28;20047;-71
2022/08/03 12:41:15;;;;;;;3.22;1.50;;;;;;;;;;4963478;28;20050;-71
2022/08/03 12:43:48;;;;;;;1.40;1.30;;;;;;;;;;4947944;28;20428;-70
2022/08/03 12:46:16;;;;;;;3.75;1.60;;;;;;;;;;4946902;28;20043;-70
2022/08/03 12:49:00;;;;;;;2.35;1.40;;;;;;;;;;4948634;28;20039;-70
2022/08/03 12:51:26;;;;;;;2.17;1.20;;;;;;;;;;4962892;28;20445;-69
2022/08/03 12:53:53;;;;;;;3.45;1.30;;;;;;;;;;4945829;28;20134;-70
2022/08/03 12:56:19;;;;;;;1.75;1.42;;;;;;;;;;4948088;28;20041;-69
2022/08/03 12:58:46;;;;;;;5.38;1.70;;;;;;;;;;4944616;28;20153;-70
2022/08/03 13:01:12;;;;;;;1.80;1.48;;;;;;;;;;4962275;28;20707;-71
2022/08/03 13:03:47;;;;;;;2.88;1.70;;;;;;;;;;4946176;28;20136;-72
2022/08/03 13:06:14;;;;;;;2.53;1.50;;;;;;;;;;4945314;28;20038;-70
2022/08/03 13:08:40;;;;;;;1.55;1.40;;;;;;;;;;4947710;28;20031;-73
2022/08/03 13:11:18;;;;;;;5.80;1.50;;;;;;;;;;4948481;28;20053;-69
2022/08/03 13:13:44;;;;;;;3.08;1.60;;;;;;;;;;4944920;28;20075;-68
2022/08/03 13:16:10;;;;;;;1.50;1.40;;;;;;;;;;4947800;28;20507;-71
2022/08/03 13:18:35;;;;;;;2.40;1.40;;;;;;;;;;4946736;28;20046;-73
2022/08/03 13:21:01;;;;;;;1.58;1.30;;;;;;;;;;4946485;28;20023;-71
2022/08/03 13:23:26;;;;;;;2.25;1.40;;;;;;;;;;4947860;28;20523;-70
2022/08/03 13:25:51;;;;;;;4.68;1.50;;;;;;;;;;4947434;28;20118;-71
2022/08/03 13:28:17;;;;;;;2.13;1.27;;;;;;;;;;4945519;28;20444;-70
2022/08/03 13:30:43;;;;;;;4.50;1.50;;;;;;;;;;4946775;28;20039;-70
2022/08/03 13:33:09;;;;;;;5.43;1.40;;;;;;;;;;4946117;28;20121;-72
2022/08/03 13:35:35;;;;;;;3.20;1.40;;;;;;;;;;4945272;28;20086;-71
2022/08/03 13:38:03;;;;;;;2.42;1.27;;;;;;;;;;4948528;28;20042;-70
2022/08/03 13:40:30;;;;;;;3.13;1.20;;;;;;;;;;4946782;28;20197;-70
2022/08/03 13:42:57;;;;;;;2.60;1.45;;;;;;;;;;4948676;28;20488;-69
2022/08/03 13:45:23;;;;;;;6.15;1.50;;;;;;;;;;4943522;28;20023;-70
2022/08/03 13:47:49;;;;;;;2.47;1.50;;;;;;;;;;4944680;28;20023;-69
2022/08/03 13:50:14;;;;;;;1.40;1.30;;;;;;;;;;4946146;28;20058;-70
2022/08/03 13:52:40;;;;;;;3.22;1.70;;;;;;;;;;4948228;28;20186;-72
2022/08/03 13:55:06;;;;;;;5.47;1.50;;;;;;;;;;4960526;28;20564;-73
2022/08/03 13:57:34;;;;;;;6.65;1.52;;;;;;;;;;4943336;28;20109;-73
2022/08/03 13:59:59;;;;;;;2.33;1.48;;;;;;;;;;4947927;28;20035;-73
2022/08/03 14:02:25;;;;;;;3.40;1.38;;;;;;;;;;4943369;28;20615;-73
2022/08/03 14:04:50;;;;;;;1.83;1.25;;;;;;;;;;4943714;28;20411;-72
2022/08/03 14:07:16;;;;;;;1.25;1.15;;;;;;;;;;4943704;28;20151;-72
2022/08/03 14:09:41;;;;;;;1.75;1.30;;;;;;;;;;4958920;28;20035;-73
2022/08/03 14:12:06;;;;;;;1.92;1.40;;;;;;;;;;4947266;28;20039;-72
2022/08/03 14:14:32;;;;;;;2.47;1.25;;;;;;;;;;4942945;28;20062;-70
2022/08/03 14:16:57;;;;;;;1.60;1.50;;;;;;;;;;4949977;28;20046;-69
2022/08/03 14:19:23;;;;;;;2.55;1.20;;;;;;;;;;4947013;28;20591;-71
2022/08/03 14:21:48;;;;;;;1.60;1.35;;;;;;;;;;4941589;28;20428;-72
2022/08/03 14:24:13;;;;;;;1.30;1.20;;;;;;;;;;4942967;28;20019;-72
2022/08/03 14:26:39;;;;;;;3.75;1.17;;;;;;;;;;4945444;28;20070;-71
2022/08/03 14:29:04;;;;;;;2.55;1.30;;;;;;;;;;4944301;28;20504;-71
2022/08/03 14:31:30;;;;;;;4.72;1.23;;;;;;;;;;4948153;28;20098;-71
2022/08/03 14:33:55;;;;;;;1.90;1.20;;;;;;;;;;4949619;28;20058;-71
2022/08/03 14:36:21;;;;;;;2.47;1.20;;;;;;;;;;4949659;28;20063;-71
2022/08/03 14:38:46;;;;;;;4.53;1.50;;;;;;;;;;4948427;28;20094;-72
2022/08/03 14:41:11;;;;;;;3.42;1.30;;;;;;;;;;4947550;28;20403;-72
2022/08/03 14:43:37;;;;;;;2.40;1.13;;;;;;;;;;4959565;28;20050;-71
2022/08/03 14:46:02;;;;;;;2.65;1.25;;;;;;;;;;4954261;28;20035;-72
2022/08/03 14:48:27;;;;;;;2.55;1.40;;;;;;;;;;4946820;28;20047;-73
2022/08/03 14:50:54;;;;;;;3.70;1.15;;;;;;;;;;4947760;28;20053;-71
2022/08/03 14:53:19;;;;;;;1.90;1.27;;;;;;;;;;4944703;28;20031;-72
2022/08/03 14:55:48;;;;;;;2.10;1.10;;;;;;;;;;4945487;28;20043;-70
2022/08/03 14:58:13;;;;;;;1.65;1.00;;;;;;;;;;4947094;28;20602;-71